createdAt,value
2019-01-05T00:00:00.477Z,1033.70
2019-01-05T00:02:00.594Z,1033.66
2019-01-05T00:06:00.458Z,1033.62
2019-01-05T00:08:01.344Z,1033.66
2019-01-05T00:12:00.442Z,1033.61
2019-01-05T00:14:00.460Z,1033.59
2019-01-05T00:18:05.697Z,1033.61
2019-01-05T00:20:10.010Z,1033.57
2019-01-05T00:24:00.624Z,1033.57
2019-01-05T00:26:00.462Z,1033.49
2019-01-05T00:30:00.479Z,1033.50
2019-01-05T00:32:00.458Z,1033.46
2019-01-05T00:38:01.415Z,1033.45
2019-01-05T00:40:00.499Z,1033.43
2019-01-05T00:44:00.484Z,1033.40
2019-01-05T00:46:00.504Z,1033.46
2019-01-05T00:50:00.495Z,1033.42
2019-01-05T00:52:00.492Z,1033.48
2019-01-05T00:56:04.913Z,1033.51
2019-01-05T00:58:00.481Z,1033.46
2019-01-05T01:02:00.672Z,1033.55
2019-01-05T01:04:02.620Z,1033.54
2019-01-05T01:08:00.526Z,1033.51
2019-01-05T01:10:00.520Z,1033.44
2019-01-05T01:16:00.501Z,1033.35
2019-01-05T01:18:00.642Z,1033.42
2019-01-05T01:22:02.616Z,1033.38
2019-01-05T01:24:00.503Z,1033.33
2019-01-05T01:28:00.538Z,1033.32
2019-01-05T01:30:03.615Z,1033.22
2019-01-05T01:34:00.543Z,1033.14
2019-01-05T01:36:02.641Z,1033.21
2019-01-05T01:40:00.582Z,1033.05
2019-01-05T01:42:02.631Z,1033.02
2019-01-05T01:46:00.556Z,1032.92
2019-01-05T01:48:00.583Z,1032.92
2019-01-05T01:52:00.544Z,1032.90
2019-01-05T01:54:01.376Z,1032.85
2019-01-05T01:58:00.578Z,1032.87
2019-01-05T02:00:05.733Z,1032.82
2019-01-05T02:04:05.798Z,1032.82
2019-01-05T02:06:00.587Z,1032.78
2019-01-05T02:10:00.575Z,1032.74
2019-01-05T02:12:00.573Z,1032.71
2019-01-05T02:18:01.422Z,1032.67
2019-01-05T02:20:00.738Z,1032.72
2019-01-05T02:24:00.598Z,1032.74
2019-01-05T02:26:00.582Z,1032.73
2019-01-05T02:30:00.698Z,1032.63
2019-01-05T02:32:00.607Z,1032.67
2019-01-05T02:36:00.601Z,1032.66
2019-01-05T02:38:00.586Z,1032.57
2019-01-05T02:42:00.617Z,1032.56
2019-01-05T02:44:00.608Z,1032.55
2019-01-05T02:48:00.625Z,1032.62
2019-01-05T02:50:00.590Z,1032.63
2019-01-05T02:54:00.934Z,1032.51
2019-01-05T02:56:02.795Z,1032.57
2019-01-05T03:00:00.611Z,1032.42
2019-01-05T03:02:05.850Z,1032.40
2019-01-05T03:06:00.640Z,1032.44
2019-01-05T03:08:00.836Z,1032.35
2019-01-05T03:12:02.966Z,1032.35
2019-01-05T03:14:01.591Z,1032.34
2019-01-05T03:18:00.683Z,1032.41
2019-01-05T03:20:00.820Z,1032.33
2019-01-05T03:24:02.981Z,1032.25
2019-01-05T03:26:00.661Z,1032.20
2019-01-05T03:30:00.711Z,1032.20
2019-01-05T03:32:00.681Z,1032.07
2019-01-05T03:36:00.680Z,1032.19
2019-01-05T03:38:00.799Z,1032.12
2019-01-05T03:42:00.682Z,1032.00
2019-01-05T03:44:00.670Z,1032.03
2019-01-05T03:48:00.698Z,1032.04
2019-01-05T03:50:00.677Z,1032.01
2019-01-05T03:54:00.691Z,1031.91
2019-01-05T03:56:00.696Z,1031.90
2019-01-05T04:00:00.699Z,1031.80
2019-01-05T04:02:00.682Z,1031.82
2019-01-05T04:06:00.691Z,1031.78
2019-01-05T04:08:00.729Z,1031.74
2019-01-05T04:12:00.733Z,1031.72
2019-01-05T04:14:00.849Z,1031.81
2019-01-05T04:18:05.816Z,1031.71
2019-01-05T04:20:00.708Z,1031.61
2019-01-05T04:26:00.755Z,1031.61
2019-01-05T04:28:00.730Z,1031.59
2019-01-05T04:32:00.766Z,1031.56
2019-01-05T04:34:00.717Z,1031.63
2019-01-05T04:38:00.757Z,1031.60
2019-01-05T04:40:00.738Z,1031.62
2019-01-05T04:44:06.344Z,1031.56
2019-01-05T04:46:00.767Z,1031.53
2019-01-05T04:50:00.766Z,1031.60
2019-01-05T04:52:03.104Z,1031.65
2019-01-05T04:56:05.168Z,1031.56
2019-01-05T04:58:06.277Z,1031.58
2019-01-05T05:02:00.828Z,1031.59
2019-01-05T05:04:00.819Z,1031.60
2019-01-05T05:08:00.798Z,1031.53
2019-01-05T05:10:00.814Z,1031.58
2019-01-05T05:14:00.833Z,1031.52
2019-01-05T05:16:00.801Z,1031.52
2019-01-05T05:20:01.072Z,1031.56
2019-01-05T05:22:00.832Z,1031.56
2019-01-05T05:26:05.246Z,1031.54
2019-01-05T05:28:00.830Z,1031.48
2019-01-05T05:34:00.849Z,1031.42
2019-01-05T05:36:00.952Z,1031.45
2019-01-05T05:40:06.091Z,1031.38
2019-01-05T05:42:00.845Z,1031.35
2019-01-05T05:46:00.861Z,1031.36
2019-01-05T05:48:01.915Z,1031.36
2019-01-05T05:52:00.843Z,1031.48
2019-01-05T05:54:00.869Z,1031.47
2019-01-05T05:58:00.857Z,1031.42
2019-01-05T06:00:06.096Z,1031.42
2019-01-05T06:04:01.028Z,1031.39
2019-01-05T06:06:00.884Z,1031.40
2019-01-05T06:10:00.874Z,1031.55
2019-01-05T06:12:00.869Z,1031.61
2019-01-05T06:18:00.861Z,1031.48
2019-01-05T06:20:00.875Z,1031.52
2019-01-05T06:24:00.898Z,1031.45
2019-01-05T06:26:00.900Z,1031.47
2019-01-05T06:30:00.923Z,1031.43
2019-01-05T06:32:00.898Z,1031.44
2019-01-05T06:36:00.952Z,1031.44
2019-01-05T06:38:00.891Z,1031.36
2019-01-05T06:42:00.988Z,1031.44
2019-01-05T06:44:00.963Z,1031.45
2019-01-05T06:48:00.947Z,1031.61
2019-01-05T06:50:00.977Z,1031.51
2019-01-05T06:54:00.976Z,1031.52
2019-01-05T06:56:00.956Z,1031.56
2019-01-05T07:00:00.958Z,1031.55
2019-01-05T07:02:00.982Z,1031.58
2019-01-05T07:06:00.955Z,1031.70
2019-01-05T07:08:06.204Z,1031.67
2019-01-05T07:12:03.063Z,1031.68
2019-01-05T07:14:00.966Z,1031.71
2019-01-05T07:18:08.044Z,1031.68
2019-01-05T07:20:27.218Z,1031.67
2019-01-05T07:24:00.986Z,1031.68
2019-01-05T07:26:01.001Z,1031.70
2019-01-05T07:30:00.997Z,1031.66
2019-01-05T07:32:00.992Z,1031.66
2019-01-05T07:38:01.023Z,1031.75
2019-01-05T07:40:01.006Z,1031.76
2019-01-05T07:44:00.988Z,1031.81
2019-01-05T07:46:01.027Z,1031.77
2019-01-05T07:50:01.026Z,1031.84
2019-01-05T07:52:01.041Z,1031.85
2019-01-05T07:56:01.017Z,1031.89
2019-01-05T07:58:01.031Z,1031.90
2019-01-05T08:02:01.049Z,1031.96
2019-01-05T08:04:06.256Z,1031.93
2019-01-05T08:08:01.043Z,1032.00
2019-01-05T08:10:01.043Z,1031.86
2019-01-05T08:14:01.039Z,1031.96
2019-01-05T08:16:01.985Z,1031.94
2019-01-05T08:20:01.064Z,1031.97
2019-01-05T08:22:01.022Z,1031.94
2019-01-05T08:26:01.068Z,1031.97
2019-01-05T08:28:01.074Z,1031.99
2019-01-05T08:32:01.064Z,1031.93
2019-01-05T08:34:01.254Z,1031.93
2019-01-05T08:38:01.060Z,1031.88
2019-01-05T08:40:01.082Z,1031.88
2019-01-05T08:46:01.080Z,1032.01
2019-01-05T08:48:01.058Z,1031.97
2019-01-05T08:52:01.097Z,1032.08
2019-01-05T08:54:01.114Z,1032.12
2019-01-05T08:58:01.074Z,1032.07
2019-01-05T09:00:01.062Z,1032.08
2019-01-05T09:04:01.097Z,1032.01
2019-01-05T09:06:01.116Z,1032.01
2019-01-05T09:10:01.108Z,1031.97
2019-01-05T09:14:01.081Z,1032.03
2019-01-05T09:16:01.078Z,1031.99
2019-01-05T09:20:01.090Z,1032.05
2019-01-05T09:22:01.115Z,1032.06
2019-01-05T09:26:01.142Z,1032.02
2019-01-05T09:28:01.096Z,1032.02
2019-01-05T09:32:01.125Z,1032.03
2019-01-05T09:34:01.164Z,1032.03
2019-01-05T09:38:01.143Z,1032.02
2019-01-05T09:40:01.104Z,1032.03
2019-01-05T09:44:01.112Z,1032.12
2019-01-05T09:46:01.103Z,1032.09
2019-01-05T09:50:01.149Z,1032.23
2019-01-05T09:52:01.113Z,1032.24
2019-01-05T09:56:01.122Z,1032.23
2019-01-05T09:58:01.153Z,1032.21
2019-01-05T10:02:01.175Z,1032.23
2019-01-05T10:04:01.114Z,1032.19
2019-01-05T10:08:01.140Z,1032.05
2019-01-05T10:10:01.155Z,1032.11
2019-01-05T10:14:01.144Z,1032.14
2019-01-05T10:16:01.142Z,1032.11
2019-01-05T10:20:01.142Z,1032.12
2019-01-05T10:22:01.151Z,1032.05
2019-01-05T10:26:01.142Z,1032.10
2019-01-05T10:28:01.157Z,1032.05
2019-01-05T10:32:01.184Z,1032.10
2019-01-05T10:34:01.170Z,1032.03
2019-01-05T10:38:01.195Z,1031.99
2019-01-05T10:40:01.177Z,1031.97
2019-01-05T10:44:01.164Z,1031.93
2019-01-05T10:46:01.208Z,1031.81
2019-01-05T10:50:01.183Z,1031.90
2019-01-05T10:52:01.196Z,1031.87
2019-01-05T10:56:01.257Z,1031.90
2019-01-05T10:58:01.217Z,1031.96
2019-01-05T11:02:01.202Z,1031.85
2019-01-05T11:04:01.220Z,1031.81
2019-01-05T11:08:01.257Z,1031.75
2019-01-05T11:10:01.274Z,1031.69
2019-01-05T11:14:01.242Z,1031.67
2019-01-05T11:16:01.259Z,1031.73
2019-01-05T11:20:01.265Z,1031.67
2019-01-05T11:22:01.262Z,1031.72
2019-01-05T11:32:01.280Z,1031.71
2019-01-05T11:34:01.247Z,1031.65
2019-01-05T11:38:01.267Z,1031.62
2019-01-05T11:40:02.158Z,1031.64
2019-01-05T11:44:01.303Z,1031.58
2019-01-05T11:46:02.285Z,1031.58
2019-01-05T11:50:01.285Z,1031.59
2019-01-05T11:52:01.319Z,1031.62
2019-01-05T11:56:01.335Z,1031.56
2019-01-05T11:58:01.279Z,1031.53
2019-01-05T12:02:11.099Z,1031.50
2019-01-05T12:04:01.351Z,1031.53
2019-01-05T12:08:01.323Z,1031.43
2019-01-05T12:10:01.334Z,1031.35
2019-01-05T12:14:01.325Z,1031.36
2019-01-05T12:16:01.298Z,1031.31
2019-01-05T12:20:01.321Z,1031.32
2019-01-05T12:22:01.312Z,1031.30
2019-01-05T12:26:01.325Z,1031.34
2019-01-05T12:28:01.332Z,1031.30
2019-01-05T12:32:01.346Z,1031.36
2019-01-05T12:34:01.349Z,1031.41
2019-01-05T12:38:01.367Z,1031.41
2019-01-05T12:40:01.385Z,1031.43
2019-01-05T12:44:01.416Z,1031.53
2019-01-05T12:46:01.372Z,1031.41
2019-01-05T12:50:01.349Z,1031.46
2019-01-05T12:52:01.366Z,1031.40
2019-01-05T12:56:01.368Z,1031.43
2019-01-05T12:58:01.372Z,1031.31
2019-01-05T13:02:01.391Z,1031.30
2019-01-05T13:04:01.391Z,1031.36
2019-01-05T13:08:01.411Z,1031.39
2019-01-05T13:10:01.387Z,1031.27
2019-01-05T13:14:01.417Z,1031.24
2019-01-05T13:16:01.418Z,1031.26
2019-01-05T13:20:01.421Z,1031.26
2019-01-05T13:22:01.416Z,1031.31
2019-01-05T13:26:01.412Z,1031.29
2019-01-05T13:28:01.397Z,1031.27
2019-01-05T13:32:01.432Z,1031.37
2019-01-05T13:34:06.027Z,1031.25
2019-01-05T13:38:01.429Z,1031.34
2019-01-05T13:40:01.423Z,1031.36
2019-01-05T13:44:01.418Z,1031.44
2019-01-05T13:46:07.038Z,1031.36
2019-01-05T13:50:01.471Z,1031.37
2019-01-05T13:52:01.429Z,1031.44
2019-01-05T13:56:01.435Z,1031.49
2019-01-05T13:58:01.439Z,1031.49
2019-01-05T14:02:02.980Z,1031.53
2019-01-05T14:04:01.512Z,1031.53
2019-01-05T14:08:01.491Z,1031.60
2019-01-05T14:10:01.488Z,1031.62
2019-01-05T14:14:01.485Z,1031.76
2019-01-05T14:16:03.561Z,1031.78
2019-01-05T14:20:03.808Z,1031.80
2019-01-05T14:22:01.484Z,1031.89
2019-01-05T14:26:01.457Z,1031.95
2019-01-05T14:28:01.497Z,1031.89
2019-01-05T14:32:01.523Z,1031.90
2019-01-05T14:34:01.496Z,1031.90
2019-01-05T14:38:01.532Z,1031.80
2019-01-05T14:40:01.527Z,1031.92
2019-01-05T14:44:01.535Z,1031.93
2019-01-05T14:46:01.539Z,1031.97
2019-01-05T14:50:01.542Z,1031.95
2019-01-05T14:52:01.505Z,1031.97
2019-01-05T14:56:01.525Z,1031.89
2019-01-05T14:58:01.532Z,1031.98
2019-01-05T15:02:01.532Z,1031.97
2019-01-05T15:04:01.561Z,1031.98
2019-01-05T15:08:01.546Z,1032.03
2019-01-05T15:10:01.570Z,1032.02
2019-01-05T15:14:01.567Z,1032.03
2019-01-05T15:16:01.584Z,1032.02
2019-01-05T15:20:01.572Z,1031.95
2019-01-05T15:22:01.559Z,1032.02
2019-01-05T15:26:01.547Z,1031.96
2019-01-05T15:28:01.551Z,1031.92
2019-01-05T15:32:01.566Z,1031.94
2019-01-05T15:34:01.618Z,1031.95
2019-01-05T15:38:01.582Z,1031.90
2019-01-05T15:40:01.573Z,1031.96
2019-01-05T15:44:01.585Z,1032.06
2019-01-05T15:46:01.568Z,1031.99
2019-01-05T15:50:01.578Z,1032.03
2019-01-05T15:52:01.591Z,1032.07
2019-01-05T15:56:01.576Z,1032.14
2019-01-05T15:58:01.619Z,1032.16
2019-01-05T16:02:01.613Z,1032.10
2019-01-05T16:04:01.590Z,1032.15
2019-01-05T16:08:01.612Z,1032.22
2019-01-05T16:10:01.612Z,1032.24
2019-01-05T16:14:01.642Z,1032.22
2019-01-05T16:16:02.420Z,1032.22
2019-01-05T16:20:01.635Z,1032.15
2019-01-05T16:22:01.639Z,1032.31
2019-01-05T16:26:01.620Z,1032.22
2019-01-05T16:28:01.620Z,1032.26
2019-01-05T16:32:01.650Z,1032.25
2019-01-05T16:34:01.634Z,1032.33
2019-01-05T16:38:01.654Z,1032.34
2019-01-05T16:40:02.302Z,1032.32
2019-01-05T16:44:01.678Z,1032.26
2019-01-05T16:46:03.994Z,1032.24
2019-01-05T16:50:01.666Z,1032.24
2019-01-05T16:52:01.669Z,1032.26
2019-01-05T16:56:01.681Z,1032.25
2019-01-05T16:58:01.685Z,1032.29
2019-01-05T17:04:01.736Z,1032.31
2019-01-05T17:06:01.689Z,1032.32
2019-01-05T17:10:01.722Z,1032.31
2019-01-05T17:12:01.718Z,1032.33
2019-01-05T17:16:01.742Z,1032.33
2019-01-05T17:18:01.727Z,1032.38
2019-01-05T17:22:01.722Z,1032.37
2019-01-05T17:24:01.698Z,1032.38
2019-01-05T17:28:07.035Z,1032.38
2019-01-05T17:30:01.747Z,1032.29
2019-01-05T17:34:01.753Z,1032.33
2019-01-05T17:36:01.757Z,1032.34
2019-01-05T17:40:01.801Z,1032.34
2019-01-05T17:42:01.777Z,1032.37
2019-01-05T17:46:01.810Z,1032.29
2019-01-05T17:48:01.797Z,1032.31
2019-01-05T17:52:01.871Z,1032.27
2019-01-05T17:54:01.869Z,1032.30
2019-01-05T17:58:01.895Z,1032.29
2019-01-05T18:00:01.861Z,1032.35
2019-01-05T18:04:01.902Z,1032.27
2019-01-05T18:06:01.909Z,1032.27
2019-01-05T18:10:01.896Z,1032.29
2019-01-05T18:12:01.908Z,1032.32
2019-01-05T18:16:01.946Z,1032.47
2019-01-05T18:18:01.996Z,1032.46
2019-01-05T18:22:01.949Z,1032.50
2019-01-05T18:24:01.908Z,1032.40
2019-01-05T18:28:01.961Z,1032.43
2019-01-05T18:30:01.906Z,1032.46
2019-01-05T18:34:01.923Z,1032.39
2019-01-05T18:36:01.974Z,1032.46
2019-01-05T18:40:01.985Z,1032.46
2019-01-05T18:42:01.966Z,1032.49
2019-01-05T18:46:01.991Z,1032.42
2019-01-05T18:48:02.015Z,1032.44
2019-01-05T18:52:02.016Z,1032.45
2019-01-05T18:54:02.055Z,1032.43
2019-01-05T18:58:02.015Z,1032.48
2019-01-05T19:00:02.012Z,1032.52
2019-01-05T19:04:02.046Z,1032.41
2019-01-05T19:06:02.020Z,1032.43
2019-01-05T19:10:02.028Z,1032.48
2019-01-05T19:12:08.587Z,1032.48
2019-01-05T19:16:02.109Z,1032.35
2019-01-05T19:18:02.018Z,1032.31
2019-01-05T19:22:02.079Z,1032.31
2019-01-05T19:24:02.056Z,1032.34
2019-01-05T19:28:02.022Z,1032.38
2019-01-05T19:30:02.014Z,1032.35
2019-01-05T19:34:02.093Z,1032.34
2019-01-05T19:36:02.570Z,1032.40
2019-01-05T19:40:02.097Z,1032.37
2019-01-05T19:42:02.083Z,1032.44
2019-01-05T19:46:02.114Z,1032.51
2019-01-05T19:48:02.069Z,1032.45
2019-01-05T19:52:05.906Z,1032.59
2019-01-05T19:54:02.078Z,1032.49
2019-01-05T19:58:02.129Z,1032.49
2019-01-05T20:00:02.095Z,1032.45
2019-01-05T20:04:06.815Z,1032.50
2019-01-05T20:06:02.172Z,1032.49
2019-01-05T20:10:02.141Z,1032.52
2019-01-05T20:12:02.170Z,1032.43
2019-01-05T20:16:02.138Z,1032.48
2019-01-05T20:18:07.186Z,1032.56
2019-01-05T20:22:02.513Z,1032.49
2019-01-05T20:24:02.160Z,1032.55
2019-01-05T20:28:02.182Z,1032.49
2019-01-05T20:30:02.165Z,1032.59
2019-01-05T20:34:03.901Z,1032.55
2019-01-05T20:36:02.198Z,1032.58
2019-01-05T20:40:02.167Z,1032.66
2019-01-05T20:42:02.196Z,1032.64
2019-01-05T20:46:02.203Z,1032.73
2019-01-05T20:48:02.199Z,1032.72
2019-01-05T20:52:02.188Z,1032.69
2019-01-05T20:54:02.222Z,1032.69
2019-01-05T20:58:02.205Z,1032.72
2019-01-05T21:00:02.212Z,1032.68
2019-01-05T21:04:02.224Z,1032.72
2019-01-05T21:06:03.091Z,1032.69
2019-01-05T21:10:02.220Z,1032.68
2019-01-05T21:12:02.254Z,1032.69
2019-01-05T21:16:02.239Z,1032.76
2019-01-05T21:18:04.317Z,1032.81
2019-01-05T21:22:02.241Z,1032.76
2019-01-05T21:24:02.211Z,1032.81
2019-01-05T21:28:02.231Z,1032.82
2019-01-05T21:30:02.244Z,1032.86
2019-01-05T21:34:02.243Z,1032.75
2019-01-05T21:36:02.238Z,1032.78
2019-01-05T21:40:02.269Z,1032.67
2019-01-05T21:42:02.265Z,1032.52
2019-01-05T21:46:02.267Z,1032.20
2019-01-05T21:48:02.291Z,1032.13
2019-01-05T21:52:02.351Z,1032.33
2019-01-05T21:54:02.299Z,1032.44
2019-01-05T21:58:02.327Z,1032.41
2019-01-05T22:00:02.329Z,1032.46
2019-01-05T22:04:02.343Z,1032.46
2019-01-05T22:06:10.316Z,1032.53
2019-01-05T22:10:02.353Z,1032.50
2019-01-05T22:12:02.329Z,1032.60
2019-01-05T22:16:02.348Z,1032.61
2019-01-05T22:18:02.365Z,1032.59
2019-01-05T22:22:02.363Z,1032.60
2019-01-05T22:24:02.338Z,1032.58
2019-01-05T22:28:02.385Z,1032.61
2019-01-05T22:30:02.361Z,1032.65
2019-01-05T22:34:02.388Z,1032.61
2019-01-05T22:36:02.431Z,1032.66
2019-01-05T22:40:02.515Z,1032.65
2019-01-05T22:42:02.359Z,1032.67
2019-01-05T22:46:02.422Z,1032.70
2019-01-05T22:48:02.410Z,1032.74
2019-01-05T22:52:02.381Z,1032.61
2019-01-05T22:54:02.373Z,1032.61
2019-01-05T22:58:02.395Z,1032.73
2019-01-05T23:00:02.433Z,1032.67
2019-01-05T23:04:02.426Z,1032.71
2019-01-05T23:06:02.462Z,1032.69
2019-01-05T23:10:02.414Z,1032.71
2019-01-05T23:12:02.450Z,1032.79
2019-01-05T23:16:02.405Z,1032.72
2019-01-05T23:18:02.418Z,1032.69
2019-01-05T23:22:02.418Z,1032.68
2019-01-05T23:24:02.448Z,1032.68
2019-01-05T23:28:02.441Z,1032.75
2019-01-05T23:30:02.438Z,1032.71
2019-01-05T23:34:02.419Z,1032.77
2019-01-05T23:36:02.412Z,1032.80
2019-01-05T23:40:02.481Z,1032.78
2019-01-05T23:42:02.436Z,1032.81
2019-01-05T23:46:02.459Z,1032.78
2019-01-05T23:48:02.453Z,1032.76
2019-01-05T23:52:02.484Z,1032.76
2019-01-05T23:54:02.514Z,1032.77
2019-01-05T23:58:02.482Z,1032.80
